sensor_id;sensor_type;location;lat;lon;timestamp;pressure;altitude;pressure_sealevel;temperature;humidity
20228;BME280;12195;55.790;37.572;2023-01-28T00:00:12;100504.51;;;0.83;74.69
20228;BME280;12195;55.790;37.572;2023-01-28T00:02:47;100508.84;;;0.79;74.74
20228;BME280;12195;55.790;37.572;2023-01-28T00:05:19;100508.00;;;0.70;74.55
20228;BME280;12195;55.790;37.572;2023-01-28T00:07:53;100501.98;;;0.65;74.57
20228;BME280;12195;55.790;37.572;2023-01-28T00:10:26;100496.81;;;0.59;74.79
20228;BME280;12195;55.790;37.572;2023-01-28T00:12:59;100492.52;;;0.53;74.84
20228;BME280;12195;55.790;37.572;2023-01-28T00:15:31;100500.30;;;0.52;74.65
20228;BME280;12195;55.790;37.572;2023-01-28T00:18:03;100495.13;;;0.46;74.91
20228;BME280;12195;55.790;37.572;2023-01-28T00:20:35;100494.27;;;0.39;75.46
20228;BME280;12195;55.790;37.572;2023-01-28T00:23:07;100488.27;;;0.36;75.53
20228;BME280;12195;55.790;37.572;2023-01-28T00:25:40;100501.17;;;0.34;75.23
20228;BME280;12195;55.790;37.572;2023-01-28T00:28:12;100495.13;;;0.31;75.49
20228;BME280;12195;55.790;37.572;2023-01-28T00:30:44;100500.30;;;0.31;75.29
20228;BME280;12195;55.790;37.572;2023-01-28T00:33:17;100498.58;;;0.27;75.39
20228;BME280;12195;55.790;37.572;2023-01-28T00:35:57;100496.86;;;0.23;75.34
20228;BME280;12195;55.790;37.572;2023-01-28T00:38:29;100502.05;;;0.20;75.33
20228;BME280;12195;55.790;37.572;2023-01-28T00:41:16;100503.78;;;0.15;75.52
20228;BME280;12195;55.790;37.572;2023-01-28T00:43:49;100502.06;;;0.11;75.79
20228;BME280;12195;55.790;37.572;2023-01-28T00:46:22;100506.34;;;0.10;75.98
20228;BME280;12195;55.790;37.572;2023-01-28T00:48:56;100502.06;;;0.11;76.09
20228;BME280;12195;55.790;37.572;2023-01-28T00:51:28;100506.36;;;0.13;76.07
20228;BME280;12195;55.790;37.572;2023-01-28T00:54:00;100503.77;;;0.13;75.74
20228;BME280;12195;55.790;37.572;2023-01-28T00:56:33;100511.52;;;0.12;75.89
20228;BME280;12195;55.790;37.572;2023-01-28T00:59:07;100517.52;;;0.13;75.89
20228;BME280;12195;55.790;37.572;2023-01-28T01:01:40;100505.48;;;0.11;76.14
20228;BME280;12195;55.790;37.572;2023-01-28T01:04:12;100508.93;;;0.12;76.18
20228;BME280;12195;55.790;37.572;2023-01-28T01:06:46;100510.66;;;0.16;76.01
20228;BME280;12195;55.790;37.572;2023-01-28T01:09:18;100508.94;;;0.15;75.74
20228;BME280;12195;55.790;37.572;2023-01-28T01:11:52;100504.61;;;0.13;75.99
20228;BME280;12195;55.790;37.572;2023-01-28T01:14:24;100510.66;;;0.16;76.02
20228;BME280;12195;55.790;37.572;2023-01-28T01:16:56;100514.09;;;0.12;76.10
20228;BME280;12195;55.790;37.572;2023-01-28T01:19:28;100508.93;;;0.12;76.15
20228;BME280;12195;55.790;37.572;2023-01-28T01:22:01;100502.03;;;0.12;76.04
20228;BME280;12195;55.790;37.572;2023-01-28T01:24:33;100508.93;;;0.12;76.14
20228;BME280;12195;55.790;37.572;2023-01-28T01:27:06;100514.09;;;0.13;75.83
20228;BME280;12195;55.790;37.572;2023-01-28T01:29:38;100519.27;;;0.13;75.88
20228;BME280;12195;55.790;37.572;2023-01-28T01:32:10;100523.55;;;0.11;76.05
20228;BME280;12195;55.790;37.572;2023-01-28T01:34:43;100514.09;;;0.12;76.33
20228;BME280;12195;55.790;37.572;2023-01-28T01:37:15;100521.84;;;0.12;76.35
20228;BME280;12195;55.790;37.572;2023-01-28T01:39:47;100510.64;;;0.13;76.39
20228;BME280;12195;55.790;37.572;2023-01-28T01:42:20;100509.78;;;0.15;76.27
20228;BME280;12195;55.790;37.572;2023-01-28T01:50:23;100504.64;;;0.11;75.94
20228;BME280;12195;55.790;37.572;2023-01-28T01:52:56;100500.31;;;0.09;76.16
20228;BME280;12195;55.790;37.572;2023-01-28T01:55:31;100506.36;;;0.15;76.13
20228;BME280;12195;55.790;37.572;2023-01-28T01:58:11;100503.78;;;0.15;75.69
20228;BME280;12195;55.790;37.572;2023-01-28T02:00:44;100501.19;;;0.13;75.95
20228;BME280;12195;55.790;37.572;2023-01-28T02:03:20;100505.48;;;0.14;75.84
20228;BME280;12195;55.790;37.572;2023-01-28T02:05:52;100506.35;;;0.12;75.64
20228;BME280;12195;55.790;37.572;2023-01-28T02:08:24;100514.09;;;0.12;75.36
20228;BME280;12195;55.790;37.572;2023-01-28T02:11:03;100510.63;;;0.08;75.63
20228;BME280;12195;55.790;37.572;2023-01-28T02:13:43;100514.09;;;0.08;75.19
20228;BME280;12195;55.790;37.572;2023-01-28T02:16:16;100511.50;;;0.07;75.23
20228;BME280;12195;55.790;37.572;2023-01-28T02:18:49;100506.33;;;0.04;75.32
20228;BME280;12195;55.790;37.572;2023-01-28T02:21:35;100511.52;;;0.03;75.10
20228;BME280;12195;55.790;37.572;2023-01-28T02:30:05;100513.23;;;0.02;75.10
20228;BME280;12195;55.790;37.572;2023-01-28T02:32:45;100510.64;;;0.00;75.21
20228;BME280;12195;55.790;37.572;2023-01-28T02:38:28;100519.25;;;-0.02;75.64
20228;BME280;12195;55.790;37.572;2023-01-28T02:41:10;100521.83;;;-0.01;75.21
20228;BME280;12195;55.790;37.572;2023-01-28T02:43:44;100514.95;;;-0.03;75.00
20228;BME280;12195;55.790;37.572;2023-01-28T02:49:21;100525.27;;;-0.06;75.18
20228;BME280;12195;55.790;37.572;2023-01-28T02:52:09;100538.16;;;-0.08;75.24
20228;BME280;12195;55.790;37.572;2023-01-28T02:57:42;100536.44;;;-0.10;74.91
20228;BME280;12195;55.790;37.572;2023-01-28T03:00:24;100541.59;;;-0.12;75.14
20228;BME280;12195;55.790;37.572;2023-01-28T03:03:15;100543.33;;;-0.14;75.21
20228;BME280;12195;55.790;37.572;2023-01-28T03:05:42;100540.74;;;-0.15;75.25
20228;BME280;12195;55.790;37.572;2023-01-28T03:08:17;100543.33;;;-0.14;75.42
20228;BME280;12195;55.790;37.572;2023-01-28T03:11:07;100542.45;;;-0.14;75.00
20228;BME280;12195;55.790;37.572;2023-01-28T03:13:57;100543.31;;;-0.17;75.19
20228;BME280;12195;55.790;37.572;2023-01-28T03:16:48;100544.19;;;-0.16;75.03
20228;BME280;12195;55.790;37.572;2023-01-28T03:19:38;100541.60;;;-0.18;74.80
20228;BME280;12195;55.790;37.572;2023-01-28T03:22:33;100548.46;;;-0.20;75.01
20228;BME280;12195;55.790;37.572;2023-01-28T03:25:25;100547.59;;;-0.19;75.08
20228;BME280;12195;55.790;37.572;2023-01-28T03:28:17;100557.92;;;-0.17;74.51
20228;BME280;12195;55.790;37.572;2023-01-28T03:31:11;100544.17;;;-0.21;74.64
20228;BME280;12195;55.790;37.572;2023-01-28T03:34:04;100538.98;;;-0.25;75.11
20228;BME280;12195;55.790;37.572;2023-01-28T03:36:54;100538.16;;;-0.23;74.93
20228;BME280;12195;55.790;37.572;2023-01-28T03:39:44;100537.30;;;-0.22;74.53
20228;BME280;12195;55.790;37.572;2023-01-28T03:42:18;100545.03;;;-0.23;74.65
20228;BME280;12195;55.790;37.572;2023-01-28T03:45:10;100542.44;;;-0.25;74.68
20228;BME280;12195;55.790;37.572;2023-01-28T03:47:44;100544.17;;;-0.27;74.71
20228;BME280;12195;55.790;37.572;2023-01-28T03:50:18;100545.87;;;-0.27;74.40
20228;BME280;12195;55.790;37.572;2023-01-28T03:52:57;100550.16;;;-0.29;74.15
20228;BME280;12195;55.790;37.572;2023-01-28T03:55:33;100559.62;;;-0.33;74.30
20228;BME280;12195;55.790;37.572;2023-01-28T03:58:05;100552.73;;;-0.35;73.92
20228;BME280;12195;55.790;37.572;2023-01-28T04:00:38;100557.04;;;-0.39;74.30
20228;BME280;12195;55.790;37.572;2023-01-28T04:03:16;100556.15;;;-0.42;74.52
20228;BME280;12195;55.790;37.572;2023-01-28T04:06:04;100550.15;;;-0.43;74.78
20228;BME280;12195;55.790;37.572;2023-01-28T04:08:38;100549.28;;;-0.42;74.48
20228;BME280;12195;55.790;37.572;2023-01-28T04:11:14;100548.41;;;-0.44;74.69
20228;BME280;12195;55.790;37.572;2023-01-28T04:13:48;100547.56;;;-0.43;74.77
20228;BME280;12195;55.790;37.572;2023-01-28T04:16:20;100557.88;;;-0.43;74.36
20228;BME280;12195;55.790;37.572;2023-01-28T04:18:54;100552.73;;;-0.43;73.91
20228;BME280;12195;55.790;37.572;2023-01-28T04:21:28;100557.86;;;-0.47;73.95
20228;BME280;12195;55.790;37.572;2023-01-28T04:24:02;100554.41;;;-0.48;74.02
20228;BME280;12195;55.790;37.572;2023-01-28T04:26:35;100550.11;;;-0.50;74.09
20228;BME280;12195;55.790;37.572;2023-01-28T04:29:08;100554.42;;;-0.51;74.54
20228;BME280;12195;55.790;37.572;2023-01-28T04:31:40;100549.27;;;-0.51;74.57
20228;BME280;12195;55.790;37.572;2023-01-28T04:34:20;100555.25;;;-0.52;74.15
20228;BME280;12195;55.790;37.572;2023-01-28T04:36:55;100550.11;;;-0.50;73.85
20228;BME280;12195;55.790;37.572;2023-01-28T04:39:29;100550.98;;;-0.50;74.00
20228;BME280;12195;55.790;37.572;2023-01-28T04:42:05;100549.27;;;-0.51;74.00
20228;BME280;12195;55.790;37.572;2023-01-28T04:44:42;100550.09;;;-0.52;74.08
20228;BME280;12195;55.790;37.572;2023-01-28T04:47:16;100554.43;;;-0.49;73.74
20228;BME280;12195;55.790;37.572;2023-01-28T04:49:53;100554.45;;;-0.34;73.96
20228;BME280;12195;55.790;37.572;2023-01-28T04:52:31;100563.01;;;-0.49;73.42
20228;BME280;12195;55.790;37.572;2023-01-28T04:55:09;100565.59;;;-0.53;73.21
20228;BME280;12195;55.790;37.572;2023-01-28T04:57:41;100562.98;;;-0.58;73.23
20228;BME280;12195;55.790;37.572;2023-01-28T05:00:14;100565.54;;;-0.61;73.36
20228;BME280;12195;55.790;37.572;2023-01-28T05:02:47;100568.13;;;-0.61;73.54
20228;BME280;12195;55.790;37.572;2023-01-28T05:05:19;100575.02;;;-0.61;73.54
20228;BME280;12195;55.790;37.572;2023-01-28T05:08:02;100566.41;;;-0.62;73.69
20228;BME280;12195;55.790;37.572;2023-01-28T05:10:34;100572.41;;;-0.60;73.41
20228;BME280;12195;55.790;37.572;2023-01-28T05:13:06;100575.86;;;-0.61;73.05
20228;BME280;12195;55.790;37.572;2023-01-28T05:15:38;100576.70;;;-0.65;73.22
20228;BME280;12195;55.790;37.572;2023-01-28T05:18:10;100582.70;;;-0.67;73.30
20228;BME280;12195;55.790;37.572;2023-01-28T05:20:44;100579.29;;;-0.68;73.06
20228;BME280;12195;55.790;37.572;2023-01-28T05:23:18;100582.70;;;-0.69;72.66
20228;BME280;12195;55.790;37.572;2023-01-28T05:25:55;100574.11;;;-0.71;72.83
20228;BME280;12195;55.790;37.572;2023-01-28T05:28:27;100578.38;;;-0.73;73.08
20228;BME280;12195;55.790;37.572;2023-01-28T05:31:04;100587.86;;;-0.72;72.52
20228;BME280;12195;55.790;37.572;2023-01-28T05:33:37;100589.58;;;-0.71;72.30
20228;BME280;12195;55.790;37.572;2023-01-28T05:36:11;100580.09;;;-0.76;72.48
20228;BME280;12195;55.790;37.572;2023-01-28T05:38:45;100577.48;;;-0.81;72.42
20228;BME280;12195;55.790;37.572;2023-01-28T05:41:17;100577.48;;;-0.81;72.42
20228;BME280;12195;55.790;37.572;2023-01-28T05:43:51;100583.50;;;-0.82;72.67
20228;BME280;12195;55.790;37.572;2023-01-28T05:46:42;100578.34;;;-0.82;72.73
20228;BME280;12195;55.790;37.572;2023-01-28T05:49:20;100586.95;;;-0.81;73.01
20228;BME280;12195;55.790;37.572;2023-01-28T05:52:01;100586.97;;;-0.80;72.86
20228;BME280;12195;55.790;37.572;2023-01-28T05:54:34;100594.69;;;-0.77;73.18
20228;BME280;12195;55.790;37.572;2023-01-28T05:57:06;100586.13;;;-0.76;73.15
20228;BME280;12195;55.790;37.572;2023-01-28T05:59:38;100596.42;;;-0.73;73.18
20228;BME280;12195;55.790;37.572;2023-01-28T06:02:11;100596.45;;;-0.70;73.21
20228;BME280;12195;55.790;37.572;2023-01-28T06:04:44;100599.91;;;-0.68;73.35
20228;BME280;12195;55.790;37.572;2023-01-28T06:07:16;100598.19;;;-0.66;73.14
20228;BME280;12195;55.790;37.572;2023-01-28T06:09:50;100607.64;;;-0.65;72.61
20228;BME280;12195;55.790;37.572;2023-01-28T06:12:24;100610.23;;;-0.62;72.56
20228;BME280;12195;55.790;37.572;2023-01-28T06:15:10;100608.52;;;-0.63;73.06
20228;BME280;12195;55.790;37.572;2023-01-28T06:18:02;100603.37;;;-0.61;73.03
20228;BME280;12195;55.790;37.572;2023-01-28T06:20:36;100599.94;;;-0.60;72.44
20228;BME280;12195;55.790;37.572;2023-01-28T06:23:09;100603.36;;;-0.60;72.27
20228;BME280;12195;55.790;37.572;2023-01-28T06:25:42;100605.09;;;-0.60;72.24
20228;BME280;12195;55.790;37.572;2023-01-28T06:28:16;100599.04;;;-0.64;72.08
20228;BME280;12195;55.790;37.572;2023-01-28T06:30:53;100602.47;;;-0.66;72.16
20228;BME280;12195;55.790;37.572;2023-01-28T06:33:25;100608.48;;;-0.67;72.16
20228;BME280;12195;55.790;37.572;2023-01-28T06:36:04;100608.50;;;-0.66;72.23
20228;BME280;12195;55.790;37.572;2023-01-28T06:38:37;100605.91;;;-0.67;71.87
20228;BME280;12195;55.790;37.572;2023-01-28T06:41:09;100605.90;;;-0.69;72.22
20228;BME280;12195;55.790;37.572;2023-01-28T06:43:42;100606.78;;;-0.67;72.37
20228;BME280;12195;55.790;37.572;2023-01-28T06:46:14;100612.80;;;-0.65;72.38
20228;BME280;12195;55.790;37.572;2023-01-28T06:48:47;100617.97;;;-0.62;72.12
20228;BME280;12195;55.790;37.572;2023-01-28T06:51:20;100615.41;;;-0.60;72.32
20228;BME280;12195;55.790;37.572;2023-01-28T06:53:52;100623.14;;;-0.56;72.72
20228;BME280;12195;55.790;37.572;2023-01-28T06:56:24;100626.63;;;-0.51;72.22
20228;BME280;12195;55.790;37.572;2023-01-28T06:58:56;100622.33;;;-0.49;72.30
20228;BME280;12195;55.790;37.572;2023-01-28T07:01:29;100619.74;;;-0.49;72.09
20228;BME280;12195;55.790;37.572;2023-01-28T07:04:03;100624.91;;;-0.47;71.85
20228;BME280;12195;55.790;37.572;2023-01-28T07:06:35;100624.03;;;-0.48;71.84
20228;BME280;12195;55.790;37.572;2023-01-28T07:09:07;100625.78;;;-0.47;71.45
20228;BME280;12195;55.790;37.572;2023-01-28T07:11:40;100623.20;;;-0.48;71.90
20228;BME280;12195;55.790;37.572;2023-01-28T07:14:12;100620.63;;;-0.47;71.62
20228;BME280;12195;55.790;37.572;2023-01-28T07:16:44;100611.16;;;-0.46;71.94
20228;BME280;12195;55.790;37.572;2023-01-28T07:19:16;100615.45;;;-0.44;71.80
20228;BME280;12195;55.790;37.572;2023-01-28T07:21:49;100610.31;;;-0.42;71.55
20228;BME280;12195;55.790;37.572;2023-01-28T07:24:21;100615.48;;;-0.41;71.61
20228;BME280;12195;55.790;37.572;2023-01-28T07:26:53;100624.09;;;-0.40;71.35
20228;BME280;12195;55.790;37.572;2023-01-28T07:29:26;100626.68;;;-0.39;70.78
20228;BME280;12195;55.790;37.572;2023-01-28T07:31:58;100626.67;;;-0.40;71.10
20228;BME280;12195;55.790;37.572;2023-01-28T07:34:30;100621.50;;;-0.42;71.49
20228;BME280;12195;55.790;37.572;2023-01-28T07:37:02;100620.64;;;-0.41;71.45
20228;BME280;12195;55.790;37.572;2023-01-28T07:39:35;100615.48;;;-0.39;71.42
20228;BME280;12195;55.790;37.572;2023-01-28T07:42:08;100619.80;;;-0.37;71.36
20228;BME280;12195;55.790;37.572;2023-01-28T07:44:42;100618.94;;;-0.34;71.04
20228;BME280;12195;55.790;37.572;2023-01-28T07:47:14;100621.56;;;-0.28;71.36
20228;BME280;12195;55.790;37.572;2023-01-28T07:49:47;100625.00;;;-0.25;71.06
20228;BME280;12195;55.790;37.572;2023-01-28T07:52:19;100614.70;;;-0.20;70.80
20228;BME280;12195;55.790;37.572;2023-01-28T07:54:51;100619.01;;;-0.18;70.52
20228;BME280;12195;55.790;37.572;2023-01-28T07:57:24;100618.15;;;-0.15;70.29
20228;BME280;12195;55.790;37.572;2023-01-28T07:59:58;100616.42;;;-0.13;69.96
20228;BME280;12195;55.790;37.572;2023-01-28T08:02:32;100619.01;;;-0.12;70.09
20228;BME280;12195;55.790;37.572;2023-01-28T08:05:05;100619.90;;;-0.08;70.13
20228;BME280;12195;55.790;37.572;2023-01-28T08:07:38;100619.05;;;-0.06;70.06
20228;BME280;12195;55.790;37.572;2023-01-28T08:10:12;100620.77;;;-0.03;69.82
20228;BME280;12195;55.790;37.572;2023-01-28T08:12:54;100619.92;;;0.03;69.59
20228;BME280;12195;55.790;37.572;2023-01-28T08:15:29;100619.06;;;0.05;69.58
20228;BME280;12195;55.790;37.572;2023-01-28T08:18:04;100613.89;;;0.09;69.39
20228;BME280;12195;55.790;37.572;2023-01-28T08:20:37;100610.45;;;0.13;69.21
20228;BME280;12195;55.790;37.572;2023-01-28T08:23:14;100608.77;;;0.17;68.63
20228;BME280;12195;55.790;37.572;2023-01-28T08:25:48;100610.48;;;0.20;68.83
20228;BME280;12195;55.790;37.572;2023-01-28T08:28:21;100617.35;;;0.27;69.00
20228;BME280;12195;55.790;37.572;2023-01-28T08:30:55;100608.77;;;0.34;68.64
20228;BME280;12195;55.790;37.572;2023-01-28T08:33:29;100612.20;;;0.40;67.92
20228;BME280;12195;55.790;37.572;2023-01-28T08:36:05;100613.09;;;0.44;67.59
20228;BME280;12195;55.790;37.572;2023-01-28T08:38:39;100613.06;;;0.47;66.81
20228;BME280;12195;55.790;37.572;2023-01-28T08:41:13;100604.47;;;0.45;66.81
20228;BME280;12195;55.790;37.572;2023-01-28T08:43:46;100598.43;;;0.43;66.86
20228;BME280;12195;55.790;37.572;2023-01-28T08:46:18;100596.72;;;0.43;67.13
20228;BME280;12195;55.790;37.572;2023-01-28T08:48:50;100596.73;;;0.46;66.82
20228;BME280;12195;55.790;37.572;2023-01-28T08:51:23;100602.74;;;0.50;67.22
20228;BME280;12195;55.790;37.572;2023-01-28T08:53:56;100599.30;;;0.51;66.50
20228;BME280;12195;55.790;37.572;2023-01-28T08:56:28;100595.88;;;0.52;66.08
20228;BME280;12195;55.790;37.572;2023-01-28T08:59:01;100599.29;;;0.49;65.79
20228;BME280;12195;55.790;37.572;2023-01-28T09:01:33;100598.45;;;0.49;65.89
20228;BME280;12195;55.790;37.572;2023-01-28T09:04:06;100594.98;;;0.47;66.40
20228;BME280;12195;55.790;37.572;2023-01-28T09:06:39;100593.28;;;0.49;66.00
20228;BME280;12195;55.790;37.572;2023-01-28T09:09:12;100592.41;;;0.50;65.36
20228;BME280;12195;55.790;37.572;2023-01-28T09:11:45;100593.29;;;0.52;65.99
20228;BME280;12195;55.790;37.572;2023-01-28T09:14:19;100595.84;;;0.53;65.54
20228;BME280;12195;55.790;37.572;2023-01-28T09:16:52;100597.59;;;0.53;65.58
20228;BME280;12195;55.790;37.572;2023-01-28T09:19:24;100595.02;;;0.56;66.12
20228;BME280;12195;55.790;37.572;2023-01-28T09:21:56;100600.15;;;0.59;66.18
20228;BME280;12195;55.790;37.572;2023-01-28T09:24:29;100588.95;;;0.63;65.90
20228;BME280;12195;55.790;37.572;2023-01-28T09:27:01;100588.95;;;0.66;65.42
20228;BME280;12195;55.790;37.572;2023-01-28T09:29:34;100582.92;;;0.68;65.21
20228;BME280;12195;55.790;37.572;2023-01-28T09:32:08;100587.23;;;0.74;65.17
20228;BME280;12195;55.790;37.572;2023-01-28T09:34:40;100582.03;;;0.80;65.21
20228;BME280;12195;55.790;37.572;2023-01-28T09:37:14;100584.62;;;0.83;64.94
20228;BME280;12195;55.790;37.572;2023-01-28T09:39:48;100582.05;;;0.89;64.52
20228;BME280;12195;55.790;37.572;2023-01-28T09:45:28;100575.98;;;0.94;64.17
20228;BME280;12195;55.790;37.572;2023-01-28T09:48:00;100569.94;;;0.98;63.83
20228;BME280;12195;55.790;37.572;2023-01-28T09:50:40;100574.27;;;1.01;63.80
20228;BME280;12195;55.790;37.572;2023-01-28T09:53:25;100577.70;;;1.07;63.75
20228;BME280;12195;55.790;37.572;2023-01-28T09:56:47;100576.83;;;1.07;64.06
20228;BME280;12195;55.790;37.572;2023-01-28T09:58:40;100568.19;;;1.09;64.23
20228;BME280;12195;55.790;37.572;2023-01-28T10:04:09;100562.11;;;1.21;63.68
20228;BME280;12195;55.790;37.572;2023-01-28T10:06:56;100568.16;;;1.26;63.22
20228;BME280;12195;55.790;37.572;2023-01-28T10:12:32;100566.41;;;1.34;63.06
20228;BME280;12195;55.790;37.572;2023-01-28T10:15:12;100561.20;;;1.35;63.35
20228;BME280;12195;55.790;37.572;2023-01-28T10:17:46;100561.19;;;1.40;62.95
20228;BME280;12195;55.790;37.572;2023-01-28T10:20:27;100553.42;;;1.43;62.74
20228;BME280;12195;55.790;37.572;2023-01-28T10:23:04;100552.55;;;1.42;62.25
20228;BME280;12195;55.790;37.572;2023-01-28T10:25:36;100548.25;;;1.43;62.39
20228;BME280;12195;55.790;37.572;2023-01-28T10:28:17;100552.55;;;1.39;62.22
20228;BME280;12195;55.790;37.572;2023-01-28T10:30:44;100539.55;;;1.59;63.52
20228;BME280;12195;55.790;37.572;2023-01-28T10:33:21;100545.66;;;1.46;62.95
20228;BME280;12195;55.790;37.572;2023-01-28T10:35:54;100537.89;;;1.46;63.06
20228;BME280;12195;55.790;37.572;2023-01-28T10:38:29;100537.03;;;1.42;62.10
20228;BME280;12195;55.790;37.572;2023-01-28T10:41:03;100543.95;;;1.40;62.54
20228;BME280;12195;55.790;37.572;2023-01-28T10:43:39;100539.66;;;1.38;62.12
20228;BME280;12195;55.790;37.572;2023-01-28T10:46:21;100539.67;;;1.32;62.43
20228;BME280;12195;55.790;37.572;2023-01-28T10:51:40;100529.32;;;1.30;62.92
20228;BME280;12195;55.790;37.572;2023-01-28T10:54:28;100525.02;;;1.32;62.54
20228;BME280;12195;55.790;37.572;2023-01-28T10:57:08;100524.09;;;1.39;62.34
20228;BME280;12195;55.790;37.572;2023-01-28T10:59:40;100525.02;;;1.34;61.86
20228;BME280;12195;55.790;37.572;2023-01-28T11:02:34;100523.31;;;1.30;62.07
20228;BME280;12195;55.790;37.572;2023-01-28T11:07:38;100527.66;;;1.23;62.20
20228;BME280;12195;55.790;37.572;2023-01-28T11:13:12;100515.56;;;1.24;62.61
20228;BME280;12195;55.790;37.572;2023-01-28T11:15:47;100520.73;;;1.24;62.50
20228;BME280;12195;55.790;37.572;2023-01-28T11:18:23;100517.31;;;1.22;62.40
20228;BME280;12195;55.790;37.572;2023-01-28T11:21:03;100506.97;;;1.23;62.50
20228;BME280;12195;55.790;37.572;2023-01-28T11:23:48;100505.22;;;1.24;62.51
20228;BME280;12195;55.790;37.572;2023-01-28T11:26:18;100500.03;;;1.28;62.64
20228;BME280;12195;55.790;37.572;2023-01-28T11:28:52;100494.81;;;1.34;62.88
20228;BME280;12195;55.790;37.572;2023-01-28T11:31:25;100496.52;;;1.40;62.57
20228;BME280;12195;55.790;37.572;2023-01-28T11:34:00;100497.34;;;1.43;62.12
20228;BME280;12195;55.790;37.572;2023-01-28T11:36:35;100489.58;;;1.48;62.06
20228;BME280;12195;55.790;37.572;2023-01-28T11:39:16;100482.64;;;1.50;61.93
20228;BME280;12195;55.790;37.572;2023-01-28T11:41:48;100483.52;;;1.52;62.25
20228;BME280;12195;55.790;37.572;2023-01-28T11:44:24;100482.64;;;1.53;61.76
20228;BME280;12195;55.790;37.572;2023-01-28T11:47:05;100480.87;;;1.58;62.13
20228;BME280;12195;55.790;37.572;2023-01-28T11:53:17;100479.09;;;1.66;61.83
20228;BME280;12195;55.790;37.572;2023-01-28T12:10:12;100460.06;;;1.76;61.11
20228;BME280;12195;55.790;37.572;2023-01-28T12:18:56;100458.45;;;1.60;61.35
20228;BME280;12195;55.790;37.572;2023-01-28T12:21:29;100461.92;;;1.59;61.53
20228;BME280;12195;55.790;37.572;2023-01-28T12:24:23;100456.59;;;1.78;62.44
20228;BME280;12195;55.790;37.572;2023-01-28T12:27:14;100456.70;;;1.62;61.74
20228;BME280;12195;55.790;37.572;2023-01-28T12:29:55;100456.70;;;1.62;61.88
20228;BME280;12195;55.790;37.572;2023-01-28T12:33:02;100451.52;;;1.62;61.41
20228;BME280;12195;55.790;37.572;2023-01-28T12:38:17;100441.08;;;1.74;62.50
20228;BME280;12195;55.790;37.572;2023-01-28T12:40:49;100445.53;;;1.54;61.60
20228;BME280;12195;55.790;37.572;2023-01-28T12:43:40;100447.29;;;1.52;62.03
20228;BME280;12195;55.790;37.572;2023-01-28T12:46:25;100443.01;;;1.46;61.67
20228;BME280;12195;55.790;37.572;2023-01-28T12:49:01;100430.95;;;1.44;61.79
20228;BME280;12195;55.790;37.572;2023-01-28T12:54:16;100431.02;;;1.35;62.00
20228;BME280;12195;55.790;37.572;2023-01-28T12:56:54;100424.98;;;1.31;62.47
20228;BME280;12195;55.790;37.572;2023-01-28T12:59:41;100431.91;;;1.29;62.56
20228;BME280;12195;55.790;37.572;2023-01-28T13:02:16;100425.03;;;1.27;62.39
20228;BME280;12195;55.790;37.572;2023-01-28T13:05:13;100421.58;;;1.28;62.67
20228;BME280;12195;55.790;37.572;2023-01-28T13:08:00;100426.80;;;1.23;62.27
20228;BME280;12195;55.790;37.572;2023-01-28T13:10:43;100431.09;;;1.21;62.57
20228;BME280;12195;55.790;37.572;2023-01-28T13:16:06;100426.81;;;1.16;62.83
20228;BME280;12195;55.790;37.572;2023-01-28T13:18:43;100432.87;;;1.12;62.83
20228;BME280;12195;55.790;37.572;2023-01-28T13:26:54;100430.33;;;1.07;63.66
20228;BME280;12195;55.790;37.572;2023-01-28T13:29:28;100426.87;;;1.05;63.51
20228;BME280;12195;55.790;37.572;2023-01-28T13:32:23;100429.50;;;1.01;63.65
20228;BME280;12195;55.790;37.572;2023-01-28T13:34:43;100426.05;;;0.97;63.85
20228;BME280;12195;55.790;37.572;2023-01-28T13:37:28;100428.67;;;0.93;63.46
20228;BME280;12195;55.790;37.572;2023-01-28T13:40:06;100420.93;;;0.87;63.34
20228;BME280;12195;55.790;37.572;2023-01-28T13:42:41;100422.69;;;0.80;63.36
20228;BME280;12195;55.790;37.572;2023-01-28T13:47:52;100424.44;;;0.68;64.16
20228;BME280;12195;55.790;37.572;2023-01-28T13:50:31;100420.19;;;0.64;64.58
20228;BME280;12195;55.790;37.572;2023-01-28T13:55:48;100415.02;;;0.61;65.09
20228;BME280;12195;55.790;37.572;2023-01-28T13:58:45;100411.56;;;0.60;65.17
20228;BME280;12195;55.790;37.572;2023-01-28T14:04:07;100402.11;;;0.56;64.87
20228;BME280;12195;55.790;37.572;2023-01-28T14:18:26;100381.48;;;0.47;65.26
20228;BME280;12195;55.790;37.572;2023-01-28T14:21:02;100384.94;;;0.46;65.48
20228;BME280;12195;55.790;37.572;2023-01-28T14:23:37;100389.23;;;0.47;65.96
20228;BME280;12195;55.790;37.572;2023-01-28T14:32:11;100385.77;;;0.51;66.39
20228;BME280;12195;55.790;37.572;2023-01-28T14:34:43;100385.77;;;0.53;66.12
20228;BME280;12195;55.790;37.572;2023-01-28T14:37:19;100381.48;;;0.52;65.75
20228;BME280;12195;55.790;37.572;2023-01-28T14:40:05;100381.44;;;0.53;66.03
20228;BME280;12195;55.790;37.572;2023-01-28T14:42:42;100382.31;;;0.54;65.70
20228;BME280;12195;55.790;37.572;2023-01-28T14:48:26;100386.64;;;0.52;66.18
20228;BME280;12195;55.790;37.572;2023-01-28T14:54:20;100384.02;;;0.53;65.83
20228;BME280;12195;55.790;37.572;2023-01-28T14:57:04;100379.73;;;0.51;65.83
20228;BME280;12195;55.790;37.572;2023-01-28T14:59:46;100383.19;;;0.48;65.85
20228;BME280;12195;55.790;37.572;2023-01-28T15:02:21;100382.31;;;0.49;66.17
20228;BME280;12195;55.790;37.572;2023-01-28T15:05:06;100377.16;;;0.51;66.51
20228;BME280;12195;55.790;37.572;2023-01-28T15:07:30;100375.44;;;0.51;66.61
20228;BME280;12195;55.790;37.572;2023-01-28T15:10:10;100370.27;;;0.54;66.75
20228;BME280;12195;55.790;37.572;2023-01-28T15:12:44;100371.98;;;0.57;67.21
20228;BME280;12195;55.790;37.572;2023-01-28T15:18:33;100372.81;;;0.63;66.97
20228;BME280;12195;55.790;37.572;2023-01-28T15:20:36;100368.48;;;0.65;67.11